PIA452 OPSD-OPIS
Flight info
| Callsign | PIA452 |
|---|---|
| Flight time | 0h 38m |
| Altitude | 30000 |
| Route | BIREB DCT DELDA DCT KAPMI DCT BOBAM |
| Aircraft | A320/M-SDE3FGHIRWY/LB1 |
Departure
| Time | 2026-05-04 21:54 |
|---|---|
| Airport | Skardu International Airport (OPSD) |
Arrival
| Time | 2026-05-04 22:32 |
|---|---|
| Airport | Islamabad International Airport (OPIS) |
| Time | Latitude | Longitude | Altitude | Speed | Heading |
|---|---|---|---|---|---|
| 2026-05-04 21:23 | 35.33088 | 75.54136 | 7404 ft | 0 kts | 147° |
| 2026-05-04 21:49 | 35.33081 | 75.54147 | 7407 ft | 4 kts | 120° |
| 2026-05-04 21:49 | 35.33092 | 75.54172 | 7407 ft | 6 kts | 30° |
| 2026-05-04 21:49 | 35.33149 | 75.54163 | 7407 ft | 9 kts | 14° |
| 2026-05-04 21:50 | 35.33183 | 75.54215 | 7407 ft | 8 kts | 59° |
| 2026-05-04 21:50 | 35.33211 | 75.54268 | 7407 ft | 8 kts | 56° |
| 2026-05-04 21:50 | 35.33252 | 75.54349 | 7407 ft | 11 kts | 64° |
| 2026-05-04 21:50 | 35.33210 | 75.54417 | 7406 ft | 12 kts | 144° |
| 2026-05-04 21:51 | 35.33134 | 75.54481 | 7403 ft | 14 kts | 147° |
| 2026-05-04 21:51 | 35.33047 | 75.54550 | 7403 ft | 15 kts | 147° |
| 2026-05-04 21:51 | 35.32951 | 75.54624 | 7402 ft | 17 kts | 148° |
| 2026-05-04 21:51 | 35.32848 | 75.54704 | 7402 ft | 18 kts | 148° |
| 2026-05-04 21:52 | 35.32744 | 75.54786 | 7405 ft | 18 kts | 147° |
| 2026-05-04 21:52 | 35.32635 | 75.54873 | 7406 ft | 19 kts | 146° |
| 2026-05-04 21:52 | 35.32524 | 75.54910 | 7408 ft | 13 kts | 171° |
| 2026-05-04 21:52 | 35.32450 | 75.54944 | 7409 ft | 10 kts | 133° |
| 2026-05-04 21:53 | 35.32475 | 75.54997 | 7409 ft | 8 kts | 354° |
| 2026-05-04 21:53 | 35.32534 | 75.54952 | 7410 ft | 17 kts | 327° |
| 2026-05-04 21:53 | 35.32838 | 75.54710 | 7407 ft | 88 kts | 327° |
| 2026-05-04 21:53 | 35.33514 | 75.54174 | 7410 ft | 143 kts | 327° |
| 2026-05-04 21:54 | 35.34492 | 75.53402 | 7459 ft | 185 kts | 328° |
| 2026-05-04 21:54 | 35.35571 | 75.52587 | 8177 ft | 180 kts | 329° |
| 2026-05-04 21:54 | 35.36636 | 75.51821 | 8852 ft | 177 kts | 330° |
| 2026-05-04 21:54 | 35.37715 | 75.51070 | 9330 ft | 182 kts | 330° |
| 2026-05-04 21:55 | 35.38846 | 75.50276 | 9711 ft | 192 kts | 330° |
| 2026-05-04 21:55 | 35.40029 | 75.49422 | 10151 ft | 202 kts | 329° |
| 2026-05-04 21:55 | 35.41228 | 75.48467 | 10537 ft | 211 kts | 323° |
| 2026-05-04 21:55 | 35.42384 | 75.47290 | 10979 ft | 217 kts | 316° |
| 2026-05-04 21:56 | 35.43428 | 75.45948 | 11592 ft | 217 kts | 311° |
| 2026-05-04 21:56 | 35.44388 | 75.44535 | 12257 ft | 213 kts | 308° |
| 2026-05-04 21:56 | 35.45303 | 75.43114 | 12822 ft | 216 kts | 307° |
| 2026-05-04 21:56 | 35.46247 | 75.41613 | 13179 ft | 226 kts | 306° |
| 2026-05-04 21:57 | 35.47211 | 75.40049 | 13586 ft | 234 kts | 305° |
| 2026-05-04 21:57 | 35.48200 | 75.38410 | 13975 ft | 247 kts | 304° |
| 2026-05-04 21:57 | 35.49370 | 75.36699 | 14154 ft | 274 kts | 316° |
| 2026-05-04 21:57 | 35.50943 | 75.35338 | 14637 ft | 290 kts | 331° |
| 2026-05-04 21:58 | 35.52875 | 75.34333 | 15059 ft | 307 kts | 340° |
| 2026-05-04 21:58 | 35.54935 | 75.33539 | 15471 ft | 321 kts | 342° |
| 2026-05-04 21:58 | 35.57092 | 75.32683 | 15921 ft | 330 kts | 336° |
| 2026-05-04 21:58 | 35.59001 | 75.31184 | 16743 ft | 324 kts | 314° |
| 2026-05-04 21:59 | 35.60269 | 75.28963 | 17649 ft | 316 kts | 292° |
| 2026-05-04 21:59 | 35.61041 | 75.26381 | 18222 ft | 323 kts | 285° |
| 2026-05-04 21:59 | 35.61625 | 75.23615 | 18617 ft | 338 kts | 282° |
| 2026-05-04 21:59 | 35.62148 | 75.20767 | 18885 ft | 353 kts | 281° |
| 2026-05-04 22:00 | 35.62630 | 75.17759 | 19166 ft | 367 kts | 280° |
| 2026-05-04 22:00 | 35.63117 | 75.14611 | 19293 ft | 385 kts | 281° |
| 2026-05-04 22:00 | 35.63695 | 75.11335 | 19588 ft | 396 kts | 282° |
| 2026-05-04 22:00 | 35.64379 | 75.08033 | 20103 ft | 401 kts | 284° |
| 2026-05-04 22:01 | 35.65149 | 75.04717 | 20665 ft | 404 kts | 285° |
| 2026-05-04 22:01 | 35.65971 | 75.01399 | 21265 ft | 406 kts | 286° |
| 2026-05-04 22:01 | 35.66812 | 74.98088 | 21767 ft | 408 kts | 286° |
| 2026-05-04 22:01 | 35.67659 | 74.94739 | 22289 ft | 411 kts | 286° |
| 2026-05-04 22:02 | 35.68500 | 74.91365 | 22823 ft | 414 kts | 286° |
| 2026-05-04 22:02 | 35.69328 | 74.87979 | 23321 ft | 416 kts | 285° |
| 2026-05-04 22:02 | 35.70110 | 74.84536 | 23776 ft | 418 kts | 281° |
| 2026-05-04 22:02 | 35.70455 | 74.80989 | 24146 ft | 420 kts | 271° |
| 2026-05-04 22:03 | 35.70268 | 74.77391 | 24490 ft | 422 kts | 261° |
| 2026-05-04 22:03 | 35.69572 | 74.73903 | 24851 ft | 425 kts | 251° |
| 2026-05-04 22:03 | 35.68372 | 74.70560 | 25170 ft | 427 kts | 243° |
| 2026-05-04 22:03 | 35.66988 | 74.67301 | 25548 ft | 430 kts | 243° |
| 2026-05-04 22:04 | 35.65603 | 74.64035 | 25900 ft | 432 kts | 243° |
| 2026-05-04 22:04 | 35.64210 | 74.60761 | 26248 ft | 435 kts | 243° |
| 2026-05-04 22:04 | 35.62804 | 74.57462 | 26541 ft | 437 kts | 243° |
| 2026-05-04 22:04 | 35.61378 | 74.54133 | 26851 ft | 439 kts | 243° |
| 2026-05-04 22:05 | 35.59952 | 74.50807 | 27194 ft | 441 kts | 243° |
| 2026-05-04 22:05 | 35.58528 | 74.47483 | 27501 ft | 444 kts | 242° |
| 2026-05-04 22:05 | 35.57078 | 74.44104 | 27819 ft | 446 kts | 242° |
| 2026-05-04 22:05 | 35.55653 | 74.40782 | 28120 ft | 447 kts | 242° |
| 2026-05-04 22:06 | 35.54179 | 74.37348 | 28409 ft | 450 kts | 242° |
| 2026-05-04 22:06 | 35.52737 | 74.33985 | 28694 ft | 451 kts | 243° |
| 2026-05-04 22:06 | 35.51252 | 74.30529 | 29042 ft | 451 kts | 243° |
| 2026-05-04 22:06 | 35.49806 | 74.27166 | 29306 ft | 452 kts | 243° |
| 2026-05-04 22:07 | 35.48342 | 74.23760 | 29560 ft | 453 kts | 243° |
| 2026-05-04 22:07 | 35.46868 | 74.20346 | 29878 ft | 452 kts | 243° |
| 2026-05-04 22:07 | 35.45394 | 74.16942 | 30155 ft | 452 kts | 243° |
| 2026-05-04 22:08 | 35.42402 | 74.10144 | 30194 ft | 458 kts | 239° |
| 2026-05-04 22:08 | 35.38244 | 74.04122 | 30190 ft | 467 kts | 226° |
| 2026-05-04 22:09 | 35.33624 | 73.98518 | 30206 ft | 467 kts | 227° |
| 2026-05-04 22:09 | 35.29023 | 73.92926 | 30207 ft | 467 kts | 227° |
| 2026-05-04 22:10 | 35.24415 | 73.87337 | 30206 ft | 467 kts | 227° |
| 2026-05-04 22:10 | 35.19816 | 73.81780 | 30202 ft | 466 kts | 227° |
| 2026-05-04 22:11 | 35.15169 | 73.76168 | 30190 ft | 466 kts | 228° |
| 2026-05-04 22:11 | 35.10582 | 73.70653 | 30217 ft | 466 kts | 228° |
| 2026-05-04 22:12 | 35.05943 | 73.65073 | 30197 ft | 465 kts | 228° |
| 2026-05-04 22:12 | 35.01364 | 73.59561 | 30223 ft | 464 kts | 230° |
| 2026-05-04 22:13 | 34.96780 | 73.54051 | 30227 ft | 463 kts | 229° |
| 2026-05-04 22:13 | 34.92194 | 73.48566 | 30193 ft | 456 kts | 229° |
| 2026-05-04 22:14 | 34.87725 | 73.43253 | 30184 ft | 444 kts | 229° |
| 2026-05-04 22:14 | 34.83322 | 73.38000 | 30189 ft | 442 kts | 230° |
| 2026-05-04 22:15 | 34.78943 | 73.32764 | 30131 ft | 441 kts | 230° |
| 2026-05-04 22:15 | 34.74567 | 73.27554 | 30143 ft | 442 kts | 229° |
| 2026-05-04 22:16 | 34.70146 | 73.22308 | 30092 ft | 443 kts | 229° |
| 2026-05-04 22:16 | 34.65769 | 73.17129 | 30074 ft | 443 kts | 229° |
| 2026-05-04 22:17 | 34.61199 | 73.12137 | 30065 ft | 449 kts | 219° |
| 2026-05-04 22:17 | 34.58430 | 73.10303 | 29804 ft | 459 kts | 207° |
| 2026-05-04 22:17 | 34.55353 | 73.09158 | 29481 ft | 467 kts | 196° |
| 2026-05-04 22:17 | 34.52113 | 73.08667 | 29181 ft | 475 kts | 186° |
| 2026-05-04 22:18 | 34.48798 | 73.08697 | 28207 ft | 478 kts | 182° |
| 2026-05-04 22:18 | 34.45451 | 73.08819 | 26879 ft | 483 kts | 181° |
| 2026-05-04 22:18 | 34.42089 | 73.08963 | 25605 ft | 487 kts | 181° |
| 2026-05-04 22:18 | 34.38738 | 73.09122 | 24451 ft | 488 kts | 180° |
| 2026-05-04 22:19 | 34.35323 | 73.09288 | 23474 ft | 479 kts | 180° |
| 2026-05-04 22:19 | 34.32083 | 73.09447 | 22570 ft | 456 kts | 180° |
| 2026-05-04 22:19 | 34.28967 | 73.09597 | 21802 ft | 442 kts | 180° |
| 2026-05-04 22:19 | 34.25907 | 73.09736 | 21029 ft | 440 kts | 180° |
| 2026-05-04 22:20 | 34.22849 | 73.09866 | 20291 ft | 437 kts | 180° |
| 2026-05-04 22:20 | 34.19867 | 73.09991 | 19593 ft | 434 kts | 180° |
| 2026-05-04 22:20 | 34.16855 | 73.10122 | 18895 ft | 431 kts | 180° |
| 2026-05-04 22:20 | 34.13859 | 73.10254 | 18156 ft | 429 kts | 180° |
| 2026-05-04 22:21 | 34.10909 | 73.10386 | 17586 ft | 422 kts | 180° |
| 2026-05-04 22:21 | 34.08025 | 73.10517 | 16973 ft | 417 kts | 180° |
| 2026-05-04 22:21 | 34.05104 | 73.10647 | 16375 ft | 410 kts | 180° |
| 2026-05-04 22:21 | 34.02280 | 73.10771 | 15807 ft | 404 kts | 180° |
| 2026-05-04 22:22 | 33.99488 | 73.10891 | 15241 ft | 400 kts | 179° |
| 2026-05-04 22:22 | 33.96720 | 73.11010 | 14653 ft | 398 kts | 179° |
| 2026-05-04 22:22 | 33.93978 | 73.11128 | 14073 ft | 395 kts | 179° |
| 2026-05-04 22:22 | 33.91224 | 73.11250 | 13399 ft | 394 kts | 179° |
| 2026-05-04 22:23 | 33.88510 | 73.11370 | 12750 ft | 390 kts | 179° |
| 2026-05-04 22:23 | 33.85801 | 73.11490 | 12086 ft | 387 kts | 179° |
| 2026-05-04 22:23 | 33.83124 | 73.11610 | 11392 ft | 384 kts | 179° |
| 2026-05-04 22:23 | 33.80485 | 73.11726 | 10992 ft | 370 kts | 179° |
| 2026-05-04 22:24 | 33.78017 | 73.11832 | 10804 ft | 339 kts | 179° |
| 2026-05-04 22:24 | 33.75755 | 73.11930 | 10668 ft | 312 kts | 179° |
| 2026-05-04 22:24 | 33.73650 | 73.12024 | 10334 ft | 297 kts | 179° |
| 2026-05-04 22:24 | 33.71618 | 73.12114 | 10101 ft | 286 kts | 179° |
| 2026-05-04 22:25 | 33.69651 | 73.12199 | 9927 ft | 280 kts | 179° |
| 2026-05-04 22:25 | 33.67712 | 73.12282 | 9799 ft | 278 kts | 179° |
| 2026-05-04 22:25 | 33.65781 | 73.12366 | 9662 ft | 277 kts | 179° |
| 2026-05-04 22:25 | 33.63854 | 73.12449 | 9533 ft | 276 kts | 179° |
| 2026-05-04 22:26 | 33.61943 | 73.12530 | 9448 ft | 274 kts | 179° |
| 2026-05-04 22:26 | 33.60023 | 73.12627 | 9399 ft | 277 kts | 177° |
| 2026-05-04 22:26 | 33.58133 | 73.12827 | 8893 ft | 269 kts | 177° |
| 2026-05-04 22:26 | 33.56907 | 73.12800 | 8576 ft | 262 kts | 188° |
| 2026-05-04 22:27 | 33.54657 | 73.11954 | 7976 ft | 248 kts | 210° |
| 2026-05-04 22:27 | 33.53296 | 73.10781 | 7514 ft | 242 kts | 224° |
| 2026-05-04 22:27 | 33.52538 | 73.09763 | 7099 ft | 244 kts | 234° |
| 2026-05-04 22:27 | 33.51722 | 73.07976 | 6483 ft | 246 kts | 249° |
| 2026-05-04 22:28 | 33.51320 | 73.05298 | 5682 ft | 248 kts | 270° |
| 2026-05-04 22:28 | 33.51440 | 73.03923 | 5379 ft | 245 kts | 279° |
| 2026-05-04 22:28 | 33.51755 | 73.01951 | 4955 ft | 239 kts | 279° |
| 2026-05-04 22:28 | 33.52064 | 72.99996 | 4436 ft | 240 kts | 280° |
| 2026-05-04 22:29 | 33.52371 | 72.98056 | 3983 ft | 237 kts | 281° |
| 2026-05-04 22:29 | 33.52675 | 72.96134 | 3655 ft | 229 kts | 281° |
| 2026-05-04 22:29 | 33.52966 | 72.94293 | 3399 ft | 218 kts | 281° |
| 2026-05-04 22:29 | 33.53240 | 72.92559 | 3095 ft | 206 kts | 281° |
| 2026-05-04 22:30 | 33.53491 | 72.90962 | 2829 ft | 187 kts | 283° |
| 2026-05-04 22:30 | 33.53721 | 72.89498 | 2604 ft | 166 kts | 283° |
| 2026-05-04 22:30 | 33.53922 | 72.88218 | 2411 ft | 152 kts | 282° |
| 2026-05-04 22:30 | 33.54117 | 72.87003 | 2204 ft | 147 kts | 281° |
| 2026-05-04 22:31 | 33.54300 | 72.85809 | 1996 ft | 144 kts | 279° |
| 2026-05-04 22:31 | 33.54482 | 72.84638 | 1842 ft | 142 kts | 280° |
| 2026-05-04 22:31 | 33.54661 | 72.83515 | 1765 ft | 124 kts | 279° |
| 2026-05-04 22:31 | 33.54786 | 72.82701 | 1751 ft | 70 kts | 280° |
| 2026-05-04 22:32 | 33.54864 | 72.82210 | 1756 ft | 53 kts | 281° |
| 2026-05-04 22:32 | 33.54924 | 72.81849 | 1749 ft | 37 kts | 288° |
| 2026-05-04 22:32 | 33.55051 | 72.81641 | 1761 ft | 23 kts | 309° |
| 2026-05-04 22:32 | 33.55200 | 72.81604 | 1751 ft | 25 kts | 20° |
| 2026-05-04 22:33 | 33.55328 | 72.81667 | 1770 ft | 16 kts | 67° |
| 2026-05-04 22:33 | 33.55315 | 72.81794 | 1768 ft | 15 kts | 103° |
| 2026-05-04 22:33 | 33.55294 | 72.81920 | 1770 ft | 15 kts | 100° |
| 2026-05-04 22:33 | 33.55276 | 72.82044 | 1768 ft | 15 kts | 99° |
| 2026-05-04 22:34 | 33.55260 | 72.82161 | 1768 ft | 14 kts | 100° |
| 2026-05-04 22:34 | 33.55243 | 72.82268 | 1768 ft | 13 kts | 101° |
| 2026-05-04 22:34 | 33.55228 | 72.82365 | 1768 ft | 11 kts | 101° |
| 2026-05-04 22:34 | 33.55218 | 72.82449 | 1768 ft | 9 kts | 81° |
| 2026-05-04 22:35 | 33.55259 | 72.82491 | 1769 ft | 7 kts | 17° |
| 2026-05-04 22:35 | 33.55307 | 72.82503 | 1772 ft | 12 kts | 9° |
| 2026-05-04 22:35 | 33.55422 | 72.82528 | 1771 ft | 18 kts | 14° |
| 2026-05-04 22:35 | 33.55468 | 72.82639 | 1771 ft | 17 kts | 98° |
| 2026-05-04 22:36 | 33.55483 | 72.82777 | 1770 ft | 17 kts | 54° |
| 2026-05-04 22:36 | 33.55552 | 72.82895 | 1770 ft | 17 kts | 55° |
| 2026-05-04 22:36 | 33.55621 | 72.83016 | 1772 ft | 16 kts | 54° |
| 2026-05-04 22:36 | 33.55620 | 72.83114 | 1771 ft | 11 kts | 119° |
| 2026-05-04 22:37 | 33.55603 | 72.83150 | 1771 ft | 0 kts | 119° |
| 2026-05-04 22:37 | 33.55598 | 72.83159 | 1772 ft | 2 kts | 120° |
| 2026-05-04 22:37 | 33.55595 | 72.83165 | 1771 ft | 0 kts | 120° |
| 2026-05-04 22:38 | 33.55595 | 72.83166 | 1770 ft | 0 kts | 120° |